createdAt,value
2022-12-05T00:00:38.118Z,101962.67
2022-12-05T00:01:42.804Z,101962.67
2022-12-05T00:02:44.773Z,101959.36
2022-12-05T00:03:48.643Z,101956.97
2022-12-05T00:04:50.762Z,101956.69
2022-12-05T00:05:52.620Z,101957.08
2022-12-05T00:06:54.770Z,101961.95
2022-12-05T00:07:56.661Z,101961.95
2022-12-05T00:08:59.216Z,101958.80
2022-12-05T00:10:01.213Z,101971.22
2022-12-05T00:11:03.283Z,101967.71
2022-12-05T00:12:05.598Z,101969.35
2022-12-05T00:13:07.790Z,101974.86
2022-12-05T00:14:11.101Z,101960.61
2022-12-05T00:15:13.744Z,101973.64
2022-12-05T00:16:18.812Z,101968.57
2022-12-05T00:17:21.055Z,101970.53
2022-12-05T00:18:22.850Z,101976.59
2022-12-05T00:19:25.569Z,101972.78
2022-12-05T00:20:27.759Z,101970.53
2022-12-05T00:21:31.217Z,101968.77
2022-12-05T00:22:36.734Z,101975.75
2022-12-05T00:23:38.781Z,101973.84
2022-12-05T00:24:40.601Z,101975.48
2022-12-05T00:25:42.320Z,101978.91
2022-12-05T00:26:44.424Z,101979.27
2022-12-05T00:27:46.568Z,101982.50
2022-12-05T00:28:49.271Z,101974.00
2022-12-05T00:29:51.004Z,101975.59
2022-12-05T00:30:52.826Z,101971.52
2022-12-05T00:31:55.138Z,101972.41
2022-12-05T00:32:57.845Z,101971.89
2022-12-05T00:34:01.769Z,101969.47
2022-12-05T00:35:04.388Z,101972.08
2022-12-05T00:36:10.606Z,101975.64
2022-12-05T00:37:12.652Z,101963.14
2022-12-05T00:38:14.531Z,101969.10
2022-12-05T00:39:16.763Z,101959.22
2022-12-05T00:40:19.256Z,101969.05
2022-12-05T00:41:23.843Z,101955.91
2022-12-05T00:42:25.885Z,101953.30
2022-12-05T00:43:27.619Z,101963.27
2022-12-05T00:44:29.483Z,101957.72
2022-12-05T00:45:32.728Z,101971.35
2022-12-05T00:46:36.151Z,101946.36
2022-12-05T00:47:38.186Z,101946.36
2022-12-05T00:48:40.423Z,101957.50
2022-12-05T00:49:43.098Z,101956.61
2022-12-05T00:50:45.093Z,101936.27
2022-12-05T00:51:46.862Z,101936.27
2022-12-05T00:52:48.614Z,101940.12
2022-12-05T00:53:50.572Z,101941.25
2022-12-05T00:54:52.561Z,101942.30
2022-12-05T00:55:54.547Z,101939.35
2022-12-05T00:56:57.780Z,101939.35
2022-12-05T00:57:59.509Z,101940.12
2022-12-05T00:59:02.897Z,101943.25
2022-12-05T01:00:06.393Z,101935.84
2022-12-05T01:01:21.288Z,101940.48
2022-12-05T01:02:23.453Z,101942.66
2022-12-05T01:03:25.149Z,101930.70
2022-12-05T01:04:27.304Z,101939.21
2022-12-05T01:05:29.192Z,101932.06
2022-12-05T01:06:31.762Z,101938.17
2022-12-05T01:07:33.993Z,101943.41
2022-12-05T01:08:36.549Z,101930.22
2022-12-05T01:09:38.365Z,101929.16
2022-12-05T01:10:40.200Z,101944.28
2022-12-05T01:11:42.657Z,101932.75
2022-12-05T01:12:44.450Z,101935.14
2022-12-05T01:13:47.968Z,101939.09
2022-12-05T01:14:49.888Z,101944.16
2022-12-05T01:15:51.842Z,101942.32
2022-12-05T01:16:55.146Z,101940.29
2022-12-05T01:17:57.338Z,101944.77
2022-12-05T01:19:01.589Z,101940.12
2022-12-05T01:20:04.379Z,101934.00
2022-12-05T01:21:07.343Z,101949.09
2022-12-05T01:22:09.675Z,101937.23
2022-12-05T01:23:12.095Z,101932.17
2022-12-05T01:24:14.519Z,101935.70
2022-12-05T01:25:16.984Z,101931.86
2022-12-05T01:26:21.387Z,101927.94
2022-12-05T01:27:23.737Z,101935.34
2022-12-05T01:28:26.493Z,101922.10
2022-12-05T01:29:28.618Z,101927.69
2022-12-05T01:30:30.588Z,101924.73
2022-12-05T01:31:35.461Z,101931.91
2022-12-05T01:32:37.506Z,101927.27
2022-12-05T01:33:39.352Z,101912.27
2022-12-05T01:34:41.502Z,101922.81
2022-12-05T01:35:43.535Z,101916.16
2022-12-05T01:36:45.985Z,101913.74
2022-12-05T01:37:48.338Z,101914.92
2022-12-05T01:38:50.846Z,101918.03
2022-12-05T01:39:52.732Z,101909.08
2022-12-05T01:41:03.772Z,101912.49
2022-12-05T01:42:06.184Z,101906.92
2022-12-05T01:43:18.008Z,101902.20
2022-12-05T01:44:26.535Z,101906.91
2022-12-05T01:45:37.895Z,101909.94
2022-12-05T01:46:46.814Z,101906.34
2022-12-05T01:47:48.736Z,101906.34
2022-12-05T01:48:53.293Z,101907.33
2022-12-05T01:49:57.987Z,101898.14
2022-12-05T01:51:00.627Z,101910.22
2022-12-05T01:52:06.069Z,101905.52
2022-12-05T01:53:08.222Z,101903.76
2022-12-05T01:54:11.419Z,101904.20
2022-12-05T01:55:16.572Z,101904.31
2022-12-05T01:56:20.453Z,101902.56
2022-12-05T01:57:24.007Z,101899.89
2022-12-05T01:58:29.602Z,101902.70
2022-12-05T01:59:35.305Z,101897.55
2022-12-05T02:00:39.626Z,101901.62
2022-12-05T02:01:41.654Z,101907.73
2022-12-05T02:02:53.171Z,101906.96
2022-12-05T02:03:57.888Z,101904.59
2022-12-05T02:05:15.395Z,101904.26
2022-12-05T02:06:17.909Z,101895.19
2022-12-05T02:07:19.709Z,101890.67
2022-12-05T02:08:22.826Z,101894.77
2022-12-05T02:09:26.622Z,101898.89
2022-12-05T02:10:32.383Z,101898.50
2022-12-05T02:11:38.379Z,101894.25
2022-12-05T02:12:41.460Z,101899.73
2022-12-05T02:14:06.522Z,101903.90
2022-12-05T02:15:27.456Z,101896.58
2022-12-05T02:16:56.754Z,101897.28
2022-12-05T02:18:08.022Z,101887.84
2022-12-05T02:19:31.334Z,101900.03
2022-12-05T02:20:37.681Z,101895.58
2022-12-05T02:22:04.467Z,101883.98
2022-12-05T02:23:16.263Z,101882.30
2022-12-05T02:24:43.440Z,101888.95
2022-12-05T02:25:51.990Z,101887.66
2022-12-05T02:27:20.236Z,101886.09
2022-12-05T02:28:45.641Z,101887.29
2022-12-05T02:30:00.643Z,101882.42
2022-12-05T02:31:33.865Z,101878.36
2022-12-05T02:32:42.131Z,101886.31
2022-12-05T02:33:51.116Z,101886.42
2022-12-05T02:35:11.952Z,101885.73
2022-12-05T02:36:26.589Z,101881.37
2022-12-05T02:37:34.935Z,101887.66
2022-12-05T02:38:58.977Z,101895.49
2022-12-05T02:40:04.524Z,101890.80
2022-12-05T02:41:34.600Z,101898.39
2022-12-05T02:42:52.262Z,101896.22
2022-12-05T02:43:57.739Z,101897.50
2022-12-05T02:45:03.240Z,101895.16
2022-12-05T02:46:11.713Z,101902.42
2022-12-05T02:47:17.390Z,101901.73
2022-12-05T02:48:20.590Z,101900.45
2022-12-05T02:49:26.181Z,101902.00
2022-12-05T02:50:35.167Z,101898.34
2022-12-05T02:51:43.862Z,101895.80
2022-12-05T02:52:48.919Z,101899.83
2022-12-05T02:53:53.204Z,101896.72
2022-12-05T02:54:55.719Z,101901.94
2022-12-05T02:55:58.081Z,101898.19
2022-12-05T02:57:01.512Z,101900.19
2022-12-05T02:58:07.032Z,101904.47
2022-12-05T02:59:10.060Z,101899.41
2022-12-05T03:00:13.720Z,101895.55
2022-12-05T03:01:17.829Z,101905.88
2022-12-05T03:03:36.900Z,101898.20
2022-12-05T03:04:38.764Z,101895.90
2022-12-05T03:05:44.402Z,101900.80
2022-12-05T03:07:01.967Z,101900.97
2022-12-05T03:08:07.696Z,101897.84
2022-12-05T03:09:26.877Z,101893.83
2022-12-05T03:10:32.485Z,101898.34
2022-12-05T03:11:46.966Z,101897.49
2022-12-05T03:12:53.610Z,101895.59
2022-12-05T03:13:59.079Z,101900.97
2022-12-05T03:15:05.243Z,101906.23
2022-12-05T03:16:14.274Z,101907.63
2022-12-05T03:17:20.284Z,101910.44
2022-12-05T03:18:25.862Z,101901.70
2022-12-05T03:19:43.698Z,101896.88
2022-12-05T03:22:03.126Z,101905.02
2022-12-05T03:23:33.082Z,101903.31
2022-12-05T03:24:38.684Z,101899.19
2022-12-05T03:26:02.474Z,101903.56
2022-12-05T03:27:17.168Z,101890.48
2022-12-05T03:28:31.643Z,101895.90
2022-12-05T03:29:42.792Z,101900.80
2022-12-05T03:30:47.566Z,101891.37
2022-12-05T03:32:09.900Z,101895.19
2022-12-05T03:33:15.358Z,101892.66
2022-12-05T03:34:29.858Z,101897.72
2022-12-05T03:35:38.288Z,101892.77
2022-12-05T03:36:44.305Z,101900.25
2022-12-05T03:38:05.824Z,101893.63
2022-12-05T03:39:20.361Z,101890.13
2022-12-05T03:40:43.862Z,101893.02
2022-12-05T03:42:05.603Z,101899.94
2022-12-05T03:43:29.095Z,101900.45
2022-12-05T03:44:37.416Z,101896.24
2022-12-05T03:45:42.933Z,101893.63
2022-12-05T03:46:48.876Z,101904.45
2022-12-05T03:47:54.803Z,101902.00
2022-12-05T03:49:00.280Z,101907.63
2022-12-05T03:50:09.346Z,101903.61
2022-12-05T03:51:15.523Z,101901.66
2022-12-05T03:52:23.831Z,101906.56
2022-12-05T03:53:29.401Z,101910.80
2022-12-05T03:54:44.144Z,101910.02
2022-12-05T03:55:49.214Z,101915.61
2022-12-05T03:56:58.165Z,101911.05
2022-12-05T03:58:19.202Z,101911.41
2022-12-05T03:59:33.512Z,101904.95
2022-12-05T04:00:39.786Z,101912.13
2022-12-05T04:01:45.070Z,101901.23
2022-12-05T04:02:53.686Z,101909.19
2022-12-05T04:04:02.179Z,101913.20
2022-12-05T04:05:10.404Z,101901.88
2022-12-05T04:06:22.939Z,101900.47
2022-12-05T04:07:28.529Z,101903.42
2022-12-05T04:08:34.186Z,101899.55
2022-12-05T04:09:46.256Z,101898.89
2022-12-05T04:10:51.273Z,101892.23
2022-12-05T04:11:56.764Z,101900.97
2022-12-05T04:13:02.556Z,101892.07
2022-12-05T04:14:20.297Z,101896.58
2022-12-05T04:15:28.932Z,101902.70
2022-12-05T04:16:37.924Z,101892.02
2022-12-05T04:17:51.927Z,101892.38
2022-12-05T04:18:59.553Z,101881.58
2022-12-05T04:20:20.023Z,101884.55
2022-12-05T04:21:25.540Z,101884.89
2022-12-05T04:22:29.524Z,101890.48
2022-12-05T04:23:32.009Z,101884.05
2022-12-05T04:24:34.006Z,101885.19
2022-12-05T04:25:43.415Z,101870.58
2022-12-05T04:26:49.078Z,101880.97
2022-12-05T04:27:54.858Z,101871.09
2022-12-05T04:29:03.572Z,101872.09
2022-12-05T04:30:09.488Z,101875.52
2022-12-05T04:31:18.056Z,101875.77
2022-12-05T04:32:23.777Z,101872.73
2022-12-05T04:33:38.525Z,101870.55
2022-12-05T04:34:44.172Z,101874.22
2022-12-05T04:35:55.771Z,101864.28
2022-12-05T04:37:01.997Z,101874.05
2022-12-05T04:38:10.346Z,101871.32
2022-12-05T04:40:41.534Z,101862.64
2022-12-05T04:42:01.713Z,101866.53
2022-12-05T04:43:06.137Z,101869.17
2022-12-05T04:44:11.637Z,101871.73
2022-12-05T04:45:17.149Z,101857.94
2022-12-05T04:46:21.138Z,101854.63
2022-12-05T04:47:26.897Z,101857.94
2022-12-05T04:48:29.755Z,101864.39
2022-12-05T04:49:34.539Z,101858.52
2022-12-05T04:50:39.338Z,101861.05
2022-12-05T04:51:43.889Z,101859.00
2022-12-05T04:52:49.100Z,101853.86
2022-12-05T04:53:54.598Z,101861.25
2022-12-05T04:55:09.570Z,101858.27
2022-12-05T04:56:15.461Z,101862.64
2022-12-05T04:57:20.961Z,101857.75
2022-12-05T04:58:25.209Z,101866.67
2022-12-05T04:59:27.327Z,101858.86
2022-12-05T05:00:31.346Z,101858.86
2022-12-05T05:01:42.744Z,101860.58
2022-12-05T05:02:51.182Z,101853.24
2022-12-05T05:04:08.375Z,101862.17
2022-12-05T05:05:14.262Z,101860.42
2022-12-05T05:06:16.963Z,101864.42
2022-12-05T05:07:20.471Z,101865.12
2022-12-05T05:08:25.567Z,101861.81
2022-12-05T05:09:27.618Z,101853.58
2022-12-05T05:10:39.119Z,101852.55
2022-12-05T05:11:41.751Z,101863.73
2022-12-05T05:12:43.767Z,101858.60
2022-12-05T05:13:46.199Z,101851.34
2022-12-05T05:14:47.959Z,101862.39
2022-12-05T05:15:49.812Z,101862.11
2022-12-05T05:16:52.262Z,101862.80
2022-12-05T05:17:54.098Z,101854.27
2022-12-05T05:18:55.930Z,101861.45
2022-12-05T05:19:57.907Z,101859.86
2022-12-05T05:21:00.985Z,101873.85
2022-12-05T05:22:03.318Z,101864.42
2022-12-05T05:23:05.336Z,101863.45
2022-12-05T05:24:09.736Z,101863.92
2022-12-05T05:25:11.884Z,101862.17
2022-12-05T05:26:14.685Z,101862.17
2022-12-05T05:27:16.389Z,101872.59
2022-12-05T05:28:18.204Z,101870.77
2022-12-05T05:29:19.938Z,101869.70
2022-12-05T05:30:23.228Z,101851.33
2022-12-05T05:31:26.034Z,101865.12
2022-12-05T05:32:27.736Z,101869.77
2022-12-05T05:33:29.553Z,101869.34
2022-12-05T05:34:31.314Z,101874.41
2022-12-05T05:35:35.635Z,101874.58
2022-12-05T05:36:38.373Z,101875.70
2022-12-05T05:37:41.049Z,101878.24
2022-12-05T05:38:45.407Z,101869.70
2022-12-05T05:39:47.367Z,101879.28
2022-12-05T05:40:49.186Z,101874.22
2022-12-05T05:41:53.044Z,101886.09
2022-12-05T05:42:55.140Z,101882.59
2022-12-05T05:43:57.786Z,101896.22
2022-12-05T05:44:59.678Z,101896.22
2022-12-05T05:46:03.427Z,101876.94
2022-12-05T05:47:05.998Z,101882.42
2022-12-05T05:48:09.048Z,101878.91
2022-12-05T05:49:10.778Z,101881.72
2022-12-05T05:50:17.854Z,101878.91
2022-12-05T05:51:18.126Z,101882.42
2022-12-05T05:52:21.267Z,101884.53
2022-12-05T05:53:23.484Z,101889.77
2022-12-05T05:54:26.721Z,101888.76
2022-12-05T05:55:29.050Z,101891.37
2022-12-05T05:56:31.161Z,101887.86
2022-12-05T05:57:32.889Z,101890.48
2022-12-05T05:58:35.431Z,101895.90
2022-12-05T05:59:37.204Z,101902.72
2022-12-05T06:00:39.066Z,101901.14
2022-12-05T06:01:40.868Z,101909.27
2022-12-05T06:02:42.892Z,101902.98
2022-12-05T06:03:46.687Z,101907.20
2022-12-05T06:04:48.984Z,101902.26
2022-12-05T06:05:59.784Z,101908.83
2022-12-05T06:07:01.722Z,101901.58
2022-12-05T06:08:04.938Z,101899.60
2022-12-05T06:09:08.163Z,101897.92
2022-12-05T06:10:11.523Z,101894.38
2022-12-05T06:11:25.423Z,101892.36
2022-12-05T06:12:23.886Z,101897.00
2022-12-05T06:13:26.242Z,101907.13
2022-12-05T06:14:28.204Z,101904.75
2022-12-05T06:15:29.908Z,101899.88
2022-12-05T06:16:32.052Z,101904.16
2022-12-05T06:17:33.840Z,101899.26
2022-12-05T06:18:36.192Z,101899.69
2022-12-05T06:19:37.990Z,101897.08
2022-12-05T06:20:39.957Z,101887.37
2022-12-05T06:21:41.691Z,101898.39
2022-12-05T06:22:43.531Z,101894.89
2022-12-05T06:23:45.349Z,101897.00
2022-12-05T06:24:47.118Z,101887.98
2022-12-05T06:25:50.942Z,101891.22
2022-12-05T06:26:52.851Z,101891.22
2022-12-05T06:27:55.516Z,101892.81
2022-12-05T06:28:57.221Z,101891.33
2022-12-05T06:29:59.652Z,101889.98
2022-12-05T06:31:07.665Z,101885.81
2022-12-05T06:32:09.581Z,101884.41
2022-12-05T06:33:12.107Z,101874.70
2022-12-05T06:34:13.881Z,101867.61
2022-12-05T06:35:16.448Z,101871.31
2022-12-05T06:36:21.990Z,101875.59
2022-12-05T06:37:23.963Z,101878.72
2022-12-05T06:38:25.743Z,101877.39
2022-12-05T06:39:27.600Z,101868.30
2022-12-05T06:40:30.737Z,101874.34
2022-12-05T06:41:32.482Z,101872.33
2022-12-05T06:42:34.239Z,101873.58
2022-12-05T06:43:35.875Z,101876.27
2022-12-05T06:44:38.184Z,101880.28
2022-12-05T06:45:40.231Z,101886.73
2022-12-05T06:46:42.544Z,101868.81
2022-12-05T06:47:44.327Z,101872.95
2022-12-05T06:48:46.463Z,101880.19
2022-12-05T06:49:48.560Z,101876.88
2022-12-05T06:50:52.022Z,101877.46
2022-12-05T06:51:53.895Z,101879.19
2022-12-05T06:52:55.615Z,101878.41
2022-12-05T06:53:57.425Z,101890.96
2022-12-05T06:54:59.150Z,101879.64
2022-12-05T06:56:03.875Z,101879.11
2022-12-05T06:57:06.762Z,101881.23
2022-12-05T06:58:08.865Z,101884.28
2022-12-05T06:59:10.826Z,101892.51
2022-12-05T07:00:14.394Z,101887.09
2022-12-05T07:01:19.032Z,101901.16
2022-12-05T07:02:21.184Z,101891.11
2022-12-05T07:03:23.270Z,101888.93
2022-12-05T07:04:25.111Z,101892.52
2022-12-05T07:05:29.380Z,101889.62
2022-12-05T07:06:33.447Z,101898.55
2022-12-05T07:07:35.879Z,101899.09
2022-12-05T07:08:38.227Z,101901.98
2022-12-05T07:09:40.001Z,101891.58
2022-12-05T07:10:42.050Z,101893.76
2022-12-05T07:11:46.937Z,101893.76
2022-12-05T07:12:49.005Z,101901.01
2022-12-05T07:13:50.965Z,101897.70
2022-12-05T07:14:52.696Z,101897.70
2022-12-05T07:15:54.298Z,101894.11
2022-12-05T07:16:56.267Z,101893.41
2022-12-05T07:17:58.150Z,101893.67
2022-12-05T07:19:00.418Z,101892.81
2022-12-05T07:20:02.855Z,101892.97
2022-12-05T07:21:12.601Z,101907.13
2022-12-05T07:22:15.759Z,101893.76
2022-12-05T07:23:15.948Z,101902.77
2022-12-05T07:24:18.241Z,101901.36
2022-12-05T07:25:20.174Z,101905.38
2022-12-05T07:26:24.017Z,101893.14
2022-12-05T07:27:28.028Z,101903.08
2022-12-05T07:28:30.197Z,101898.01
2022-12-05T07:29:31.923Z,101886.16
2022-12-05T07:30:34.972Z,101896.80
2022-12-05T07:31:36.877Z,101897.07
2022-12-05T07:32:39.980Z,101892.44
2022-12-05T07:33:42.216Z,101882.45
2022-12-05T07:34:43.919Z,101892.95
2022-12-05T07:35:46.088Z,101886.16
2022-12-05T07:36:48.109Z,101892.27
2022-12-05T07:37:49.911Z,101880.55
2022-12-05T07:38:57.980Z,101881.25
2022-12-05T07:40:00.317Z,101883.28
2022-12-05T07:41:12.744Z,101880.47
2022-12-05T07:42:11.143Z,101879.06
2022-12-05T07:43:13.417Z,101879.69
2022-12-05T07:44:15.895Z,101872.62
2022-12-05T07:45:17.797Z,101877.14
2022-12-05T07:46:21.777Z,101875.08
2022-12-05T07:47:24.426Z,101876.28
2022-12-05T07:48:26.933Z,101878.69
2022-12-05T07:49:28.831Z,101878.69
2022-12-05T07:50:30.667Z,101872.12
2022-12-05T07:51:33.416Z,101878.24
2022-12-05T07:52:35.495Z,101871.48
2022-12-05T07:53:38.725Z,101869.88
2022-12-05T07:54:40.662Z,101868.81
2022-12-05T07:55:42.421Z,101868.03
2022-12-05T07:56:47.755Z,101872.65
2022-12-05T07:57:48.033Z,101865.64
2022-12-05T07:58:50.988Z,101867.77
2022-12-05T07:59:53.119Z,101867.77
2022-12-05T08:00:55.928Z,101863.55
2022-12-05T08:01:57.817Z,101864.66
2022-12-05T08:03:02.664Z,101861.65
2022-12-05T08:04:04.750Z,101861.02
2022-12-05T08:05:08.239Z,101853.26
2022-12-05T08:06:16.721Z,101859.59
2022-12-05T08:07:18.866Z,101863.21
2022-12-05T08:08:20.959Z,101855.85
2022-12-05T08:09:23.391Z,101857.50
2022-12-05T08:10:26.602Z,101854.52
2022-12-05T08:11:31.915Z,101869.33
2022-12-05T08:12:34.919Z,101853.76
2022-12-05T08:13:37.573Z,101857.15
2022-12-05T08:14:39.854Z,101859.95
2022-12-05T08:15:41.708Z,101867.80
2022-12-05T08:16:44.204Z,101863.63
2022-12-05T08:17:46.145Z,101863.78
2022-12-05T08:18:48.842Z,101864.47
2022-12-05T08:19:50.634Z,101865.16
2022-12-05T08:20:53.049Z,101860.94
2022-12-05T08:21:55.021Z,101867.24
2022-12-05T08:22:57.393Z,101856.20
2022-12-05T08:23:59.369Z,101856.20
2022-12-05T08:25:01.315Z,101857.73
2022-12-05T08:26:07.040Z,101855.62
2022-12-05T08:27:09.078Z,101865.14
2022-12-05T08:28:11.025Z,101850.05
2022-12-05T08:29:15.119Z,101846.27
2022-12-05T08:30:17.841Z,101846.27
2022-12-05T08:31:22.162Z,101859.09
2022-12-05T08:32:24.531Z,101859.30
2022-12-05T08:33:27.172Z,101854.08
2022-12-05T08:34:28.837Z,101859.67
2022-12-05T08:35:30.448Z,101843.22
2022-12-05T08:36:32.847Z,101856.36
2022-12-05T08:37:34.655Z,101853.55
2022-12-05T08:38:37.084Z,101853.70
2022-12-05T08:39:39.059Z,101850.70
2022-12-05T08:40:41.517Z,101849.92
2022-12-05T08:41:44.320Z,101849.33
2022-12-05T08:42:46.112Z,101844.45
2022-12-05T08:43:48.630Z,101848.41
2022-12-05T08:44:51.522Z,101849.72
2022-12-05T08:45:54.526Z,101839.64
2022-12-05T08:46:56.519Z,101834.19
2022-12-05T08:47:58.134Z,101833.20
2022-12-05T08:49:00.002Z,101832.80
2022-12-05T08:50:02.113Z,101822.87
2022-12-05T08:51:06.664Z,101822.98
2022-12-05T08:52:09.371Z,101829.83
2022-12-05T08:53:11.496Z,101833.77
2022-12-05T08:54:14.834Z,101833.13
2022-12-05T08:55:17.901Z,101820.27
2022-12-05T08:56:26.567Z,101826.48
2022-12-05T08:57:25.400Z,101825.13
2022-12-05T08:58:29.710Z,101825.99
2022-12-05T08:59:31.773Z,101819.20
2022-12-05T09:00:34.080Z,101817.04
2022-12-05T09:01:36.116Z,101820.91
2022-12-05T09:02:38.440Z,101816.37
2022-12-05T09:03:47.318Z,101818.55
2022-12-05T09:04:54.680Z,101813.61
2022-12-05T09:05:55.025Z,101817.41
2022-12-05T09:06:59.913Z,101808.65
2022-12-05T09:08:01.700Z,101808.05
2022-12-05T09:09:06.823Z,101808.70
2022-12-05T09:10:09.952Z,101812.58
2022-12-05T09:11:17.726Z,101802.36
2022-12-05T09:12:19.809Z,101806.02
2022-12-05T09:13:21.587Z,101788.97
2022-12-05T09:14:23.401Z,101798.09
2022-12-05T09:15:26.312Z,101790.31
2022-12-05T09:16:36.479Z,101779.20
2022-12-05T09:17:35.221Z,101784.20
2022-12-05T09:18:37.413Z,101787.07
2022-12-05T09:19:39.774Z,101792.25
2022-12-05T09:20:41.713Z,101793.47
2022-12-05T09:21:44.658Z,101797.07
2022-12-05T09:22:48.761Z,101794.88
2022-12-05T09:23:51.944Z,101790.34
2022-12-05T09:24:53.765Z,101790.83
2022-12-05T09:25:56.720Z,101794.27
2022-12-05T09:26:59.125Z,101789.35
2022-12-05T09:28:01.686Z,101789.48
2022-12-05T09:29:03.344Z,101788.88
2022-12-05T09:30:06.957Z,101786.70
2022-12-05T09:31:13.109Z,101786.70
2022-12-05T09:32:15.505Z,101786.95
2022-12-05T09:33:17.833Z,101778.84
2022-12-05T09:34:19.663Z,101786.95
2022-12-05T09:35:21.604Z,101783.44
2022-12-05T09:36:26.840Z,101780.81
2022-12-05T09:37:39.150Z,101781.76
2022-12-05T09:38:33.244Z,101777.27
2022-12-05T09:39:35.895Z,101780.45
2022-12-05T09:40:41.454Z,101782.66
2022-12-05T09:42:17.873Z,101789.74
2022-12-05T09:43:29.239Z,101778.72
2022-12-05T09:44:53.849Z,101780.70
2022-12-05T09:46:17.782Z,101777.03
2022-12-05T09:47:46.509Z,101777.88
2022-12-05T09:48:50.174Z,101772.67
2022-12-05T09:50:02.812Z,101775.03
2022-12-05T09:51:05.673Z,101762.69
2022-12-05T09:52:11.348Z,101770.84
2022-12-05T09:53:35.367Z,101776.30
2022-12-05T09:54:37.743Z,101778.09
2022-12-05T09:55:43.611Z,101773.88
2022-12-05T09:56:49.970Z,101772.36
2022-12-05T09:57:57.420Z,101779.50
2022-12-05T09:58:59.861Z,101766.75
2022-12-05T10:00:04.817Z,101777.38
2022-12-05T10:01:29.054Z,101772.30
2022-12-05T10:02:55.849Z,101773.55
2022-12-05T10:04:21.178Z,101778.33
2022-12-05T10:05:41.940Z,101769.82
2022-12-05T10:07:03.820Z,101765.03
2022-12-05T10:08:25.905Z,101762.39
2022-12-05T10:09:38.133Z,101769.52
2022-12-05T10:11:02.325Z,101764.01
2022-12-05T10:12:24.528Z,101757.91
2022-12-05T10:13:33.885Z,101768.37
2022-12-05T10:14:59.563Z,101769.90
2022-12-05T10:16:14.814Z,101762.22
2022-12-05T10:18:52.454Z,101756.95
2022-12-05T10:19:59.011Z,101757.61
2022-12-05T10:21:22.940Z,101762.34
2022-12-05T10:22:45.720Z,101763.12
2022-12-05T10:23:58.548Z,101765.63
2022-12-05T10:25:05.098Z,101769.84
2022-12-05T10:26:10.602Z,101765.43
2022-12-05T10:27:19.708Z,101754.32
2022-12-05T10:28:31.498Z,101756.07
2022-12-05T10:29:53.212Z,101754.77
2022-12-05T10:30:58.774Z,101756.06
2022-12-05T10:33:18.031Z,101753.24
2022-12-05T10:35:45.893Z,101755.05
2022-12-05T10:37:04.157Z,101748.78
2022-12-05T10:38:12.343Z,101752.64
2022-12-05T10:39:14.202Z,101757.38
2022-12-05T10:40:18.098Z,101747.72
2022-12-05T10:41:19.936Z,101751.43
2022-12-05T10:42:31.802Z,101753.02
2022-12-05T10:43:36.037Z,101748.33
2022-12-05T10:44:38.017Z,101746.00
2022-12-05T10:45:45.428Z,101741.66
2022-12-05T10:46:48.888Z,101737.27
2022-12-05T10:47:57.003Z,101738.80
2022-12-05T10:48:59.120Z,101736.05
2022-12-05T10:50:28.091Z,101735.31
2022-12-05T10:51:37.028Z,101730.55
2022-12-05T10:52:34.933Z,101732.03
2022-12-05T10:53:43.653Z,101732.95
2022-12-05T10:54:58.692Z,101731.56
2022-12-05T10:56:29.393Z,101727.95
2022-12-05T10:57:22.221Z,101732.81
2022-12-05T10:58:28.152Z,101735.57
2022-12-05T10:59:46.178Z,101729.19
2022-12-05T11:00:52.302Z,101728.74
2022-12-05T11:01:57.887Z,101729.69
2022-12-05T11:03:03.967Z,101728.45
2022-12-05T11:04:27.892Z,101725.13
2022-12-05T11:05:32.855Z,101724.11
2022-12-05T11:06:34.959Z,101714.95
2022-12-05T11:07:47.544Z,101720.32
2022-12-05T11:09:04.283Z,101722.34
2022-12-05T11:10:00.247Z,101715.52
2022-12-05T11:11:23.393Z,101712.45
2022-12-05T11:12:29.485Z,101717.14
2022-12-05T11:13:33.731Z,101708.68
2022-12-05T11:14:35.697Z,101706.69
2022-12-05T11:15:41.154Z,101712.80
2022-12-05T11:16:46.892Z,101714.67
2022-12-05T11:17:50.071Z,101712.64
2022-12-05T11:18:53.268Z,101716.27
2022-12-05T11:19:55.197Z,101708.86
2022-12-05T11:21:09.690Z,101708.23
2022-12-05T11:22:15.176Z,101703.20
2022-12-05T11:23:21.987Z,101711.05
2022-12-05T11:24:33.758Z,101712.70
2022-12-05T11:25:36.328Z,101706.83
2022-12-05T11:26:38.334Z,101702.02
2022-12-05T11:27:39.971Z,101702.02
2022-12-05T11:28:42.355Z,101696.88
2022-12-05T11:30:05.023Z,101700.09
2022-12-05T11:31:23.005Z,101696.20
2022-12-05T11:32:28.631Z,101695.34
2022-12-05T11:33:33.198Z,101686.21
2022-12-05T11:34:39.480Z,101673.28
2022-12-05T11:35:43.115Z,101673.28
2022-12-05T11:36:53.004Z,101682.30
2022-12-05T11:38:01.620Z,101684.91
2022-12-05T11:39:03.823Z,101683.22
2022-12-05T11:40:21.650Z,101676.77
2022-12-05T11:41:42.889Z,101676.98
2022-12-05T11:44:38.416Z,101662.27
2022-12-05T11:46:05.251Z,101663.75
2022-12-05T11:48:51.735Z,101651.58
2022-12-05T11:50:03.326Z,101650.88
2022-12-05T11:51:10.071Z,101650.88
2022-12-05T11:53:59.322Z,101647.29
2022-12-05T11:55:13.628Z,101652.62
2022-12-05T11:56:35.867Z,101646.13
2022-12-05T11:57:50.393Z,101649.56
2022-12-05T11:59:13.400Z,101647.50
2022-12-05T12:00:29.222Z,101642.53
2022-12-05T12:01:38.483Z,101651.44
2022-12-05T12:02:53.129Z,101638.86
2022-12-05T12:04:19.194Z,101632.34
2022-12-05T12:05:37.417Z,101632.55
2022-12-05T12:06:49.137Z,101626.13
2022-12-05T12:08:17.756Z,101630.27
2022-12-05T12:09:48.049Z,101623.27
2022-12-05T12:11:15.705Z,101624.38
2022-12-05T12:12:26.290Z,101622.23
2022-12-05T12:13:49.843Z,101627.89
2022-12-05T12:15:04.484Z,101619.95
2022-12-05T12:16:13.442Z,101620.09
2022-12-05T12:17:27.822Z,101626.17
2022-12-05T12:18:51.094Z,101612.06
2022-12-05T12:20:02.163Z,101606.78
2022-12-05T12:21:16.619Z,101611.62
2022-12-05T12:22:40.673Z,101605.48
2022-12-05T12:24:08.895Z,101594.24
2022-12-05T12:25:34.244Z,101594.35
2022-12-05T12:26:45.875Z,101602.44
2022-12-05T12:28:19.324Z,101598.09
2022-12-05T12:29:38.322Z,101598.34
2022-12-05T12:31:02.951Z,101590.95
2022-12-05T12:32:25.241Z,101591.52
2022-12-05T12:33:31.515Z,101593.77
2022-12-05T12:34:40.440Z,101590.59
2022-12-05T12:35:56.020Z,101599.46
2022-12-05T12:37:27.855Z,101590.13
2022-12-05T12:38:33.334Z,101595.35
2022-12-05T12:39:55.265Z,101588.23
2022-12-05T12:41:20.737Z,101593.69
2022-12-05T12:42:47.672Z,101593.37
2022-12-05T12:44:10.146Z,101590.78
2022-12-05T12:45:37.116Z,101598.48
2022-12-05T12:47:01.739Z,101590.33
2022-12-05T12:48:16.651Z,101586.45
2022-12-05T12:49:31.639Z,101594.14
2022-12-05T12:50:43.263Z,101592.70
2022-12-05T12:51:48.610Z,101590.09
2022-12-05T12:53:01.710Z,101592.70
2022-12-05T12:54:34.347Z,101589.44
2022-12-05T12:55:42.044Z,101589.44